createdAt,value
2022-11-30T00:01:50.682Z,9.30
2022-11-30T00:04:18.502Z,10.27
2022-11-30T00:06:46.461Z,9.20
2022-11-30T00:09:15.644Z,10.10
2022-11-30T00:11:43.521Z,9.60
2022-11-30T00:14:11.439Z,9.97
2022-11-30T00:16:39.296Z,9.87
2022-11-30T00:19:07.172Z,9.60
2022-11-30T00:21:35.013Z,9.23
2022-11-30T00:24:02.983Z,9.30
2022-11-30T00:26:32.729Z,9.13
2022-11-30T00:29:00.658Z,10.17
2022-11-30T00:31:28.601Z,9.63
2022-11-30T00:33:56.522Z,9.37
2022-11-30T00:36:24.617Z,10.30
2022-11-30T00:38:53.349Z,10.00
2022-11-30T00:41:21.850Z,9.20
2022-11-30T00:43:51.160Z,10.00
2022-11-30T00:46:19.138Z,9.60
2022-11-30T00:48:47.365Z,9.17
2022-11-30T00:51:15.468Z,9.80
2022-11-30T00:53:43.872Z,9.60
2022-11-30T00:56:12.238Z,9.13
2022-11-30T00:58:40.193Z,10.33
2022-11-30T01:01:09.979Z,9.47
2022-11-30T01:03:37.956Z,9.67
2022-11-30T01:06:06.896Z,9.57
2022-11-30T01:08:35.938Z,9.73
2022-11-30T01:11:08.919Z,8.70
2022-11-30T01:13:36.847Z,9.83
2022-11-30T01:16:13.073Z,8.73
2022-11-30T01:18:40.991Z,10.00
2022-11-30T01:21:09.641Z,9.73
2022-11-30T01:23:37.911Z,10.07
2022-11-30T01:26:05.744Z,10.13
2022-11-30T01:28:33.877Z,11.07
2022-11-30T01:31:03.693Z,10.90
2022-11-30T01:33:33.513Z,10.27
2022-11-30T01:36:02.916Z,10.17
2022-11-30T01:38:34.005Z,10.53
2022-11-30T01:41:01.955Z,10.27
2022-11-30T01:43:41.068Z,10.03
2022-11-30T01:46:22.263Z,9.60
2022-11-30T01:48:58.252Z,9.60
2022-11-30T01:51:31.952Z,9.77
2022-11-30T01:54:00.294Z,9.73
2022-11-30T01:56:28.570Z,9.80
2022-11-30T01:58:56.441Z,10.17
2022-11-30T02:01:24.313Z,10.50
2022-11-30T02:03:59.896Z,9.80
2022-11-30T02:06:27.927Z,9.63
2022-11-30T02:08:56.550Z,10.40
2022-11-30T02:11:28.124Z,10.07
2022-11-30T02:14:06.968Z,10.30
2022-11-30T02:16:45.354Z,10.13
2022-11-30T02:19:39.725Z,9.30
2022-11-30T02:22:16.902Z,9.57
2022-11-30T02:24:53.382Z,9.33
2022-11-30T02:27:36.845Z,8.90
2022-11-30T02:30:09.912Z,9.43
2022-11-30T02:32:44.452Z,9.63
2022-11-30T02:35:15.472Z,9.97
2022-11-30T02:37:44.242Z,9.80
2022-11-30T02:40:16.534Z,8.63
2022-11-30T02:42:44.395Z,9.43
2022-11-30T02:45:13.832Z,10.50
2022-11-30T02:47:46.475Z,10.00
2022-11-30T02:50:19.023Z,10.40
2022-11-30T02:52:47.620Z,9.63
2022-11-30T02:55:17.770Z,9.63
2022-11-30T02:57:45.673Z,10.00
2022-11-30T03:00:17.563Z,9.57
2022-11-30T03:02:45.515Z,10.17
2022-11-30T03:05:13.553Z,9.73
2022-11-30T03:07:41.519Z,9.60
2022-11-30T03:10:10.850Z,10.33
2022-11-30T03:12:38.942Z,9.40
2022-11-30T03:15:08.091Z,9.47
2022-11-30T03:17:37.347Z,9.93
2022-11-30T03:20:06.266Z,9.63
2022-11-30T03:22:34.164Z,9.47
2022-11-30T03:25:02.160Z,9.07
2022-11-30T03:27:30.042Z,8.90
2022-11-30T03:29:57.996Z,8.87
2022-11-30T03:32:25.903Z,9.37
2022-11-30T03:34:55.150Z,9.53
2022-11-30T03:37:23.051Z,9.50
2022-11-30T03:39:56.509Z,8.80
2022-11-30T03:42:26.017Z,9.33
2022-11-30T03:44:53.920Z,9.47
2022-11-30T03:47:21.756Z,9.20
2022-11-30T03:49:49.706Z,9.17
2022-11-30T03:52:18.949Z,10.00
2022-11-30T03:54:47.120Z,10.03
2022-11-30T03:57:15.182Z,10.40
2022-11-30T03:59:43.133Z,9.40
2022-11-30T04:02:11.331Z,10.30
2022-11-30T04:04:39.295Z,10.50
2022-11-30T04:07:07.111Z,10.00
2022-11-30T04:09:36.318Z,10.20
2022-11-30T04:12:04.372Z,9.57
2022-11-30T04:14:32.266Z,10.57
2022-11-30T04:17:00.186Z,10.23
2022-11-30T04:19:28.048Z,10.20
2022-11-30T04:21:55.976Z,9.80
2022-11-30T04:24:23.809Z,11.17
2022-11-30T04:26:53.120Z,9.97
2022-11-30T04:29:21.069Z,10.80
2022-11-30T04:31:48.931Z,9.73
2022-11-30T04:34:16.746Z,9.63
2022-11-30T04:36:44.598Z,10.30
2022-11-30T04:39:12.484Z,9.63
2022-11-30T04:41:41.055Z,9.37
2022-11-30T04:44:10.563Z,9.70
2022-11-30T04:46:38.502Z,9.03
2022-11-30T04:49:06.564Z,9.53
2022-11-30T04:51:34.395Z,8.93
2022-11-30T04:54:02.230Z,9.23
2022-11-30T04:56:30.124Z,9.60
2022-11-30T04:58:58.026Z,9.27
2022-11-30T05:01:27.422Z,9.80
2022-11-30T05:03:55.437Z,9.93
2022-11-30T05:06:23.322Z,9.57
2022-11-30T05:08:51.265Z,9.37
2022-11-30T05:11:19.332Z,9.87
2022-11-30T05:13:47.200Z,9.47
2022-11-30T05:16:15.117Z,9.50
2022-11-30T05:18:44.452Z,9.80
2022-11-30T05:21:12.702Z,10.07
2022-11-30T05:23:40.571Z,10.20
2022-11-30T05:26:08.455Z,10.33
2022-11-30T05:28:37.418Z,10.77
2022-11-30T05:31:06.297Z,10.20
2022-11-30T05:33:34.611Z,10.37
2022-11-30T05:36:10.140Z,10.00
2022-11-30T05:38:38.184Z,9.87
2022-11-30T05:41:06.297Z,9.27
2022-11-30T05:43:34.191Z,10.00
2022-11-30T05:46:02.989Z,8.87
2022-11-30T05:48:31.370Z,9.10
2022-11-30T05:51:08.093Z,9.07
2022-11-30T05:53:36.000Z,9.27
2022-11-30T05:56:04.855Z,8.80
2022-11-30T05:58:33.014Z,10.13
2022-11-30T06:01:01.156Z,9.43
2022-11-30T06:03:30.168Z,9.83
2022-11-30T06:05:58.171Z,9.97
2022-11-30T06:08:28.111Z,10.67
2022-11-30T06:10:55.984Z,9.43
2022-11-30T06:13:28.691Z,10.00
2022-11-30T06:15:59.945Z,11.03
2022-11-30T06:18:28.136Z,10.60
2022-11-30T06:20:56.048Z,10.70
2022-11-30T06:23:23.915Z,10.97
2022-11-30T06:25:53.108Z,10.83
2022-11-30T06:28:20.996Z,12.20
2022-11-30T06:30:48.882Z,11.63
2022-11-30T06:33:16.828Z,11.93
2022-11-30T06:35:47.282Z,11.00
2022-11-30T06:38:15.218Z,11.90
2022-11-30T06:40:43.094Z,12.00
2022-11-30T06:43:12.379Z,11.63
2022-11-30T06:45:40.387Z,11.97
2022-11-30T06:48:08.271Z,11.77
2022-11-30T06:50:36.146Z,11.80
2022-11-30T06:53:03.987Z,11.60
2022-11-30T06:55:35.223Z,12.20
2022-11-30T06:58:07.785Z,12.17
2022-11-30T07:00:37.911Z,12.40
2022-11-30T07:03:06.978Z,11.93
2022-11-30T07:05:37.445Z,12.13
2022-11-30T07:08:05.813Z,11.87
2022-11-30T07:10:33.822Z,11.40
2022-11-30T07:13:01.825Z,11.57
2022-11-30T07:15:31.134Z,12.03
2022-11-30T07:18:02.956Z,12.43
2022-11-30T07:20:31.030Z,11.87
2022-11-30T07:23:18.942Z,12.13
2022-11-30T07:26:04.292Z,11.73
2022-11-30T07:28:32.307Z,12.17
2022-11-30T07:31:00.311Z,11.17
2022-11-30T07:33:29.525Z,11.43
2022-11-30T07:35:57.408Z,12.63
2022-11-30T07:38:25.297Z,11.93
2022-11-30T07:40:53.114Z,12.30
2022-11-30T07:43:20.989Z,11.47
2022-11-30T07:45:53.718Z,11.67
2022-11-30T07:48:22.344Z,12.07
2022-11-30T07:50:51.838Z,11.50
2022-11-30T07:53:19.965Z,11.70
2022-11-30T07:55:50.543Z,11.17
2022-11-30T07:58:20.676Z,12.03
2022-11-30T08:00:48.636Z,12.00
2022-11-30T08:03:16.538Z,11.73
2022-11-30T08:05:44.467Z,11.60
2022-11-30T08:08:13.705Z,12.10
2022-11-30T08:10:41.627Z,11.77
2022-11-30T08:13:09.559Z,12.43
2022-11-30T08:15:37.956Z,11.67
2022-11-30T08:18:07.076Z,11.33
2022-11-30T08:20:35.001Z,12.00
2022-11-30T08:23:02.849Z,12.07
2022-11-30T08:25:32.367Z,11.90
2022-11-30T08:28:00.181Z,12.23
2022-11-30T08:30:32.419Z,11.07
2022-11-30T08:33:00.892Z,11.93
2022-11-30T08:35:28.836Z,11.03
2022-11-30T08:37:56.716Z,12.10
2022-11-30T08:40:24.568Z,11.87
2022-11-30T08:42:53.748Z,11.97
2022-11-30T08:45:21.578Z,11.60
2022-11-30T08:47:49.480Z,11.17
2022-11-30T08:50:17.430Z,11.63
2022-11-30T08:52:45.274Z,11.50
2022-11-30T08:55:13.212Z,11.27
2022-11-30T08:57:41.122Z,11.70
2022-11-30T09:00:12.002Z,12.07
2022-11-30T09:02:39.919Z,12.13
2022-11-30T09:05:08.431Z,11.63
2022-11-30T09:07:36.333Z,11.97
2022-11-30T09:10:04.664Z,12.40
2022-11-30T09:12:35.592Z,11.73
2022-11-30T09:15:03.417Z,13.30
2022-11-30T09:17:33.429Z,12.97
2022-11-30T09:20:01.589Z,13.10
2022-11-30T09:22:29.912Z,12.50
2022-11-30T09:24:57.841Z,12.57
2022-11-30T09:27:30.347Z,13.30
2022-11-30T09:29:58.220Z,13.40
2022-11-30T09:32:26.048Z,14.57
2022-11-30T09:34:55.279Z,14.10
2022-11-30T09:37:23.737Z,15.20
2022-11-30T09:39:51.640Z,14.60
2022-11-30T09:42:29.624Z,15.67
2022-11-30T09:45:04.381Z,16.70
2022-11-30T09:47:47.780Z,15.70
2022-11-30T09:50:19.689Z,16.00
2022-11-30T09:52:50.455Z,15.93
2022-11-30T09:55:26.613Z,16.87
2022-11-30T09:57:57.732Z,16.90
2022-11-30T10:00:26.451Z,16.50
2022-11-30T10:02:56.706Z,16.37
2022-11-30T10:05:29.780Z,15.80
2022-11-30T10:08:18.309Z,16.27
2022-11-30T10:10:53.391Z,16.27
2022-11-30T10:13:36.595Z,17.00
2022-11-30T10:16:14.785Z,15.90
2022-11-30T10:18:52.293Z,16.17
2022-11-30T10:21:36.681Z,16.43
2022-11-30T10:24:26.783Z,16.80
2022-11-30T10:26:56.606Z,15.97
2022-11-30T10:29:32.607Z,16.07
2022-11-30T10:32:09.829Z,15.37
2022-11-30T10:34:37.945Z,15.77
2022-11-30T10:37:13.588Z,15.73
2022-11-30T10:39:48.905Z,15.27
2022-11-30T10:42:22.319Z,16.43
2022-11-30T10:44:58.503Z,15.27
2022-11-30T10:47:31.266Z,15.50
2022-11-30T10:49:59.193Z,15.80
2022-11-30T10:52:32.036Z,15.00
2022-11-30T10:55:04.642Z,16.67
2022-11-30T10:57:33.479Z,15.30
2022-11-30T11:00:07.178Z,13.73
2022-11-30T11:02:38.377Z,14.37
2022-11-30T11:05:20.951Z,13.67
2022-11-30T11:08:06.832Z,13.40
2022-11-30T11:10:37.502Z,13.63
2022-11-30T11:13:06.097Z,13.23
2022-11-30T11:15:35.575Z,13.07
2022-11-30T11:18:23.721Z,12.30
2022-11-30T11:21:05.776Z,12.60
2022-11-30T11:23:38.915Z,12.73
2022-11-30T11:26:07.985Z,13.37
2022-11-30T11:28:37.218Z,14.30
2022-11-30T11:31:18.704Z,13.93
2022-11-30T11:33:52.529Z,14.37
2022-11-30T11:36:27.366Z,14.67
2022-11-30T11:38:57.486Z,14.60
2022-11-30T11:41:29.111Z,15.50
2022-11-30T11:44:02.521Z,14.17
2022-11-30T11:46:32.306Z,14.13
2022-11-30T11:49:03.320Z,14.57
2022-11-30T11:51:33.305Z,14.07
2022-11-30T11:54:08.121Z,14.93
2022-11-30T11:56:38.485Z,13.90
2022-11-30T11:59:15.541Z,14.43
2022-11-30T12:01:56.185Z,14.73
2022-11-30T12:04:37.683Z,13.67
2022-11-30T12:07:18.058Z,14.23
2022-11-30T12:10:43.695Z,14.20
2022-11-30T12:13:01.744Z,14.03
2022-11-30T12:15:33.653Z,13.10
2022-11-30T12:18:15.016Z,14.50
2022-11-30T12:20:54.706Z,14.00
2022-11-30T12:23:49.239Z,14.97
2022-11-30T12:26:26.726Z,13.97
2022-11-30T12:29:17.158Z,13.40
2022-11-30T12:31:52.059Z,14.73
2022-11-30T12:34:27.291Z,14.30
2022-11-30T12:37:03.809Z,14.87
2022-11-30T12:39:43.711Z,15.10
2022-11-30T12:42:18.931Z,13.70
2022-11-30T12:44:57.689Z,14.23
2022-11-30T12:47:40.034Z,13.00
2022-11-30T12:50:38.408Z,14.23
2022-11-30T12:53:18.210Z,12.70
2022-11-30T12:55:52.250Z,13.37
2022-11-30T12:58:31.341Z,12.77
2022-11-30T13:01:12.285Z,14.03
2022-11-30T13:03:48.041Z,13.10
2022-11-30T13:06:21.286Z,13.60
2022-11-30T13:08:55.904Z,12.47
2022-11-30T13:11:29.855Z,12.63
2022-11-30T13:14:01.269Z,13.70
2022-11-30T13:16:31.787Z,13.27
2022-11-30T13:19:11.649Z,13.70
2022-11-30T13:21:48.031Z,13.63
2022-11-30T13:24:21.038Z,13.90
2022-11-30T13:26:54.050Z,13.70
2022-11-30T13:29:39.934Z,13.43
2022-11-30T13:32:27.933Z,13.47
2022-11-30T13:35:33.381Z,14.50
2022-11-30T13:38:35.207Z,14.13
2022-11-30T13:40:59.832Z,13.60
2022-11-30T13:43:29.990Z,13.33
2022-11-30T13:46:15.483Z,14.37
2022-11-30T13:48:44.562Z,13.77
2022-11-30T13:51:13.098Z,14.57
2022-11-30T13:53:42.129Z,15.27
2022-11-30T13:56:33.059Z,14.20
2022-11-30T13:59:40.768Z,15.50
2022-11-30T14:02:54.179Z,15.50
2022-11-30T14:05:35.169Z,14.50
2022-11-30T14:08:35.799Z,14.60
2022-11-30T14:11:41.798Z,14.43
2022-11-30T14:14:46.835Z,14.07
2022-11-30T14:17:20.972Z,14.23
2022-11-30T14:19:52.919Z,13.97
2022-11-30T14:22:21.189Z,14.30
2022-11-30T14:24:50.386Z,14.27
2022-11-30T14:27:22.045Z,13.77
2022-11-30T14:29:53.607Z,12.70
2022-11-30T14:32:31.523Z,13.83
2022-11-30T14:35:12.456Z,12.77
2022-11-30T14:37:47.272Z,13.73
2022-11-30T14:40:18.944Z,14.30
2022-11-30T14:42:49.804Z,14.17
2022-11-30T14:45:23.396Z,13.63
2022-11-30T14:47:54.058Z,14.00
2022-11-30T14:50:27.319Z,13.93
2022-11-30T14:53:06.335Z,13.97
2022-11-30T14:55:40.756Z,13.53
2022-11-30T14:58:21.172Z,13.30
2022-11-30T15:00:49.827Z,13.67
2022-11-30T15:03:21.710Z,14.23
2022-11-30T15:05:54.076Z,13.20
2022-11-30T15:08:22.788Z,14.23
2022-11-30T15:10:51.566Z,14.10
2022-11-30T15:13:21.308Z,14.10
2022-11-30T15:15:53.661Z,13.73
2022-11-30T15:18:23.137Z,14.07
2022-11-30T15:20:56.971Z,15.33
2022-11-30T15:23:25.034Z,14.30
2022-11-30T15:25:57.459Z,14.93
2022-11-30T15:28:30.868Z,14.30
2022-11-30T15:31:02.210Z,14.87
2022-11-30T15:33:34.926Z,14.83
2022-11-30T15:36:22.900Z,14.70
2022-11-30T15:38:53.411Z,15.30
2022-11-30T15:41:22.918Z,14.47
2022-11-30T15:43:53.397Z,14.13
2022-11-30T15:46:30.340Z,14.37
2022-11-30T15:49:07.584Z,15.00
2022-11-30T15:51:41.030Z,14.30
2022-11-30T15:54:09.128Z,14.30
2022-11-30T15:56:37.143Z,14.67
2022-11-30T15:59:07.229Z,15.17
2022-11-30T16:02:01.760Z,14.50
2022-11-30T16:04:30.887Z,14.80
2022-11-30T16:07:00.116Z,15.10
2022-11-30T16:09:33.341Z,16.27
2022-11-30T16:12:02.827Z,14.87
2022-11-30T16:14:30.671Z,14.70
2022-11-30T16:16:59.864Z,15.93
2022-11-30T16:19:31.779Z,15.70
2022-11-30T16:22:01.255Z,15.63
2022-11-30T16:24:29.172Z,16.47
2022-11-30T16:26:57.184Z,15.53
2022-11-30T16:29:25.225Z,16.10
2022-11-30T16:31:53.302Z,15.50
2022-11-30T16:34:21.231Z,18.57
2022-11-30T16:36:49.084Z,16.93
2022-11-30T16:39:18.279Z,16.93
2022-11-30T16:41:46.150Z,15.73
2022-11-30T16:44:15.108Z,16.97
2022-11-30T16:46:43.292Z,16.37
2022-11-30T16:49:11.177Z,16.83
2022-11-30T16:51:41.778Z,18.60
2022-11-30T16:54:12.321Z,16.30
2022-11-30T16:56:41.648Z,16.33
2022-11-30T16:59:15.005Z,19.27
2022-11-30T17:01:47.365Z,16.37
2022-11-30T17:04:19.160Z,15.73
2022-11-30T17:06:50.575Z,19.03
2022-11-30T17:09:19.827Z,17.13
2022-11-30T17:11:51.423Z,19.17
2022-11-30T17:14:20.866Z,18.37
2022-11-30T17:16:48.988Z,16.87
2022-11-30T17:19:17.027Z,17.67
2022-11-30T17:21:45.065Z,16.87
2022-11-30T17:24:13.570Z,19.70
2022-11-30T17:26:41.730Z,19.37
2022-11-30T17:29:11.021Z,18.70
2022-11-30T17:31:38.937Z,17.97
2022-11-30T17:34:08.501Z,18.60
2022-11-30T17:36:36.445Z,17.03
2022-11-30T17:39:06.497Z,17.47
2022-11-30T17:41:34.501Z,17.53
2022-11-30T17:44:02.699Z,17.43
2022-11-30T17:46:31.929Z,16.30
2022-11-30T17:48:59.781Z,16.77
2022-11-30T17:51:28.007Z,18.20
2022-11-30T17:53:56.085Z,17.83
2022-11-30T17:56:24.485Z,17.07
2022-11-30T17:58:52.649Z,17.80
2022-11-30T18:01:22.151Z,19.30
2022-11-30T18:03:53.782Z,19.03
2022-11-30T18:06:21.998Z,18.93
2022-11-30T18:08:49.863Z,20.23
2022-11-30T18:11:20.311Z,20.73
2022-11-30T18:13:48.796Z,18.17
2022-11-30T18:16:18.490Z,19.53
2022-11-30T18:18:48.431Z,18.63
2022-11-30T18:21:20.522Z,25.23
2022-11-30T18:23:48.937Z,21.47
2022-11-30T18:26:18.677Z,20.73
2022-11-30T18:28:47.944Z,18.70
2022-11-30T18:31:15.951Z,18.37
2022-11-30T18:33:43.909Z,19.17
2022-11-30T18:36:11.938Z,19.23
2022-11-30T18:38:42.415Z,17.13
2022-11-30T18:41:10.721Z,17.53
2022-11-30T18:43:38.939Z,18.37
2022-11-30T18:46:08.743Z,19.07
2022-11-30T18:48:37.490Z,19.23
2022-11-30T18:51:11.854Z,17.97
2022-11-30T18:53:41.469Z,19.47
2022-11-30T18:56:10.852Z,19.90
2022-11-30T18:58:38.776Z,22.10
2022-11-30T19:01:11.171Z,21.40
2022-11-30T19:03:42.176Z,19.13
2022-11-30T19:06:11.426Z,19.37
2022-11-30T19:08:45.804Z,20.50
2022-11-30T19:14:15.101Z,19.93
2022-11-30T19:16:43.940Z,20.03
2022-11-30T19:19:17.206Z,20.57
2022-11-30T19:21:49.008Z,19.97
2022-11-30T19:24:22.626Z,20.63
2022-11-30T19:26:50.497Z,21.93
2022-11-30T19:29:29.474Z,22.37
2022-11-30T19:32:01.110Z,20.70
2022-11-30T19:34:32.407Z,20.27
2022-11-30T19:37:09.834Z,22.17
2022-11-30T19:39:39.014Z,21.27
2022-11-30T19:42:08.261Z,21.67
2022-11-30T19:44:38.739Z,19.87
2022-11-30T19:47:06.664Z,21.97
2022-11-30T19:49:36.714Z,22.80
2022-11-30T19:52:04.699Z,21.27
2022-11-30T19:54:32.597Z,22.30
2022-11-30T19:57:03.651Z,22.60
2022-11-30T19:59:33.547Z,20.97
2022-11-30T20:02:04.170Z,20.47
2022-11-30T20:04:32.237Z,21.23
2022-11-30T20:07:01.746Z,21.20
2022-11-30T20:09:30.111Z,22.30
2022-11-30T20:11:58.132Z,24.40
2022-11-30T20:14:27.359Z,20.80
2022-11-30T20:16:55.285Z,20.97
2022-11-30T20:19:23.284Z,21.30
2022-11-30T20:21:51.224Z,21.37
2022-11-30T20:24:19.162Z,21.53
2022-11-30T20:26:47.423Z,21.20
2022-11-30T20:29:17.250Z,21.97
2022-11-30T20:31:48.030Z,21.80
2022-11-30T20:34:16.190Z,21.83
2022-11-30T20:36:45.102Z,20.10
2022-11-30T20:39:16.910Z,21.80
2022-11-30T20:41:44.759Z,21.50
2022-11-30T20:44:19.111Z,22.57
2022-11-30T20:46:49.475Z,22.57
2022-11-30T20:49:23.731Z,21.50
2022-11-30T20:51:52.673Z,22.33
2022-11-30T20:54:22.589Z,20.80
2022-11-30T20:56:51.387Z,21.30
2022-11-30T20:59:23.460Z,22.90
2022-11-30T21:01:56.031Z,20.97
2022-11-30T21:04:26.874Z,20.13
2022-11-30T21:06:55.115Z,21.10
2022-11-30T21:09:25.857Z,20.57
2022-11-30T21:11:53.829Z,21.27
2022-11-30T21:14:22.192Z,21.13
2022-11-30T21:16:50.114Z,20.53
2022-11-30T21:19:19.371Z,20.03
2022-11-30T21:21:47.285Z,19.43
2022-11-30T21:24:15.209Z,20.13
2022-11-30T21:26:49.229Z,26.87
2022-11-30T21:29:20.278Z,20.57
2022-11-30T21:31:49.266Z,21.90
2022-11-30T21:34:17.591Z,20.57
2022-11-30T21:36:46.895Z,21.47
2022-11-30T21:39:15.894Z,20.63
2022-11-30T21:41:43.945Z,21.83
2022-11-30T21:44:20.544Z,23.43
2022-11-30T21:46:48.736Z,22.80
2022-11-30T21:49:24.822Z,21.77
2022-11-30T21:51:54.614Z,22.20
2022-11-30T21:54:22.511Z,23.20
2022-11-30T21:56:52.541Z,22.20
2022-11-30T21:59:20.591Z,21.67
2022-11-30T22:01:48.525Z,20.90
2022-11-30T22:04:18.447Z,21.40
2022-11-30T22:06:51.238Z,20.93
2022-11-30T22:09:20.985Z,22.30
2022-11-30T22:11:50.507Z,21.67
2022-11-30T22:14:19.563Z,20.53
2022-11-30T22:16:47.603Z,21.00
2022-11-30T22:19:16.454Z,21.40
2022-11-30T22:21:50.298Z,21.70
2022-11-30T22:24:20.017Z,20.17
2022-11-30T22:26:49.819Z,20.60
2022-11-30T22:29:19.567Z,21.97
2022-11-30T22:31:48.724Z,20.73
2022-11-30T22:34:17.080Z,21.63
2022-11-30T22:36:48.304Z,21.30
2022-11-30T22:39:21.698Z,21.83
2022-11-30T22:41:55.585Z,22.70
2022-11-30T22:44:25.009Z,21.93
2022-11-30T22:46:53.992Z,21.73
2022-11-30T22:49:22.334Z,23.13
2022-11-30T22:51:50.905Z,23.17
2022-11-30T22:54:19.281Z,22.20
2022-11-30T22:56:47.437Z,22.97
2022-11-30T22:59:17.199Z,23.67
2022-11-30T23:01:47.084Z,22.77
2022-11-30T23:04:17.072Z,22.60
2022-11-30T23:06:45.910Z,21.40
2022-11-30T23:09:21.582Z,20.87
2022-11-30T23:11:55.046Z,20.37
2022-11-30T23:14:34.235Z,21.93
2022-11-30T23:17:04.119Z,21.83
2022-11-30T23:19:32.197Z,23.20
2022-11-30T23:22:02.788Z,21.97
2022-11-30T23:24:31.012Z,22.27
2022-11-30T23:27:01.198Z,21.73
2022-11-30T23:29:30.569Z,22.13
2022-11-30T23:31:58.543Z,20.77
2022-11-30T23:34:26.436Z,21.27
2022-11-30T23:36:54.578Z,22.33
2022-11-30T23:39:24.782Z,22.57
2022-11-30T23:42:01.482Z,22.77
2022-11-30T23:47:30.519Z,21.50
2022-11-30T23:49:58.336Z,22.00
2022-11-30T23:52:27.577Z,21.40
2022-11-30T23:54:56.798Z,20.70
2022-11-30T23:57:24.709Z,22.00
2022-11-30T23:59:53.891Z,22.23
